NY Terminal Aviation Weather Discussion (AFD) - Prepared: 813 PM EDT FRI APR 24 2015
LOW PRESSURE OVER THE CANADIAN MARITIMES WILL SLOWLY
WEAKEN TONIGHT...WHILE HIGH PRESSURE BRIEFLY BUILDS IN FROM THE
WEST. THE HIGH WILL RETREAT FARTHER NORTH ON SATURDAY. VFR
THROUGH THE TAF PERIOD. GUSTY NW TO NNW FLOW WILL DIMINISH AND
BACK WNW LATER TONIGHT...WITH GUSTS RESUMING DURING THE
MORNING...THEN BACK W TO WSW IN THE AFTERNOON.

5 Day General Aviation Outlook:

.OUTLOOK FOR 00Z SUNDAY THROUGH WED...
.SAT...VFR. 
.SAT NIGHT-SUNDAY NIGHT...MAINLY VFR. 
.MON-TUE...POSSIBLE MVFR WITH SHOWERS.
.TUE NIGHT-WED...VFR. 


NY Metro Terminal Aviation Weather Summary: (Explanation of Color Coding)
NOTE: All Wind Directions are TRUE (add 13 degrees for magnetic directions). Tail and Crosswind Calculations do account for the magnetic deviation of runways.

Click on the Airport Below for Specific Information at that Terminal

TAF Overview JFK TAF LGA TAF EWR TAF TEB TAF HPN TAF ISP TAF

Jump to AirSpace Impacts Section Condensed "lite" version of SPA page
**************************************************************************************
KJFK Terminal Weather: (Wind Directions Are True, Except Where Noted, ADD 13 degrees for Magnetic)

5MIN KJFK 250155Z 34020G29KT 10SM CLR 06/M07 A2992 10 
     39 -1000 350/20G29 RMK AO2 PK WND 35027/0153 $
5MIN KJFK 250150Z 34017G24KT 10SM CLR 06/M07 A2992 10 
     39 -1000 360/17G24 RMK AO2 PK WND 34033/0137 SLP132 T00561072 $
********************************************
****        MAGNETIC DIRECTIONS         ****
********************************************
KJFK 04/25/2015 02:05:29 GMT 350 17 G31KT
KJFK 04/25/2015 02:03:29 GMT 340 22 G31KT
KJFK 04/25/2015 02:01:29 GMT 340 24 G31KT
KJFK 04/25/2015 01:59:29 GMT 340 19 G27KT
KJFK 04/25/2015 01:57:29 GMT 340 19 G27KT
KJFK 04/25/2015 01:55:29 GMT 340 17 G27KT
KJFK 04/25/2015 01:53:29 GMT 340 15 G27KT
KJFK 04/25/2015 01:51:29 GMT 330 22 G27KT
KJFK 04/25/2015 01:49:29 GMT 330 17 G31KT
KJFK 04/25/2015 01:47:29 GMT 340 21 G31KT
SAUS70 KJFK 250200 RRF
METAR KJFK 250151Z 34020G29KT 10SM CLR 06/M07 A2992 RMK AO2 PK WND
     34033/0137 SLP132 T00561072 $
FTNA35 KJFK 242357 RRH
KJFK 242349Z 2500/2606 34020G30KT P6SM FEW080
     FM250300 33016G24KT P6SM SKC
     FM250700 31013KT P6SM SKC
     FM251600 28013G21KT P6SM FEW050 SCT250
     FM252000 23012G20KT P6SM SCT050 SCT250
     FM260000 21009KT P6SM SCT250
     FM260300 VRB06KT P6SM BKN250
KJFK FCSTER COMMENTS: OCNL GUSTS JUST OVER 30 KT BEFORE 03Z. 

jfk

JFK Hourly Forecast Temperature (C)

JFK Hourly TMPS
**************************************************************************************
KLGA Terminal Weather: (Wind Directions Are True, Except Where Noted, ADD 13 degrees for Magnetic)

5MIN KLGA 250155Z 34019G28KT 10SM CLR 06/M06 A2992 20 
     44 -1000 350/19G28 RMK AO2
5MIN KLGA 250150Z 33022G28KT 10SM CLR 06/M06 A2992 20 
     43 -1000 340/22G28 RMK AO2 PK WND 33029/0108 SLP132 T00561061
********************************************
****        MAGNETIC DIRECTIONS         ****
********************************************
KLGA 04/25/2015 02:06:01 GMT 350 23 G30KT
KLGA 04/25/2015 02:03:52 GMT 350 26 G30KT
KLGA 04/25/2015 02:01:51 GMT 360 22 G27KT
KLGA 04/25/2015 01:59:51 GMT 360 23 G27KT
KLGA 04/25/2015 01:57:51 GMT 350 25 KT
KLGA 04/25/2015 01:56:01 GMT 350 21 G27KT
KLGA 04/25/2015 01:54:01 GMT 350 25 KT
KLGA 04/25/2015 01:51:51 GMT 360 25 KT
KLGA 04/25/2015 01:49:52 GMT 360 20 G25KT
KLGA 04/25/2015 01:47:51 GMT 360 22 KT
SAUS70 KLGA 250200
METAR KLGA 250151Z 34020G28KT 10SM CLR 06/M06 A2992 RMK AO2 PK WND
     33029/0108 SLP131 T00561061
FTUS31 KLGA 242351
KLGA 242349Z 2500/2524 34019G27KT P6SM FEW080
     FM250300 33016G24KT P6SM SKC
     FM250600 31012KT P6SM SKC
     FM251700 30012G19KT P6SM FEW050 SCT250
     FM252200 30010KT P6SM FEW050 SCT250
KLGA FCSTER COMMENTS: OCNL GUSTS UP TO 30 KT BEFORE 03Z.

lga


**************************************************************************************

KEWR Terminal Weather: (Wind Directions Are True, Except Where Noted, ADD 13 degrees for Magnetic)

5MIN KEWR 250155Z 34017G23KT 10SM CLR 06/M07 A2993 10 
     41 -1000 350/17G23 RMK AO2
5MIN KEWR 250150Z 33012G21KT 10SM FEW250 06/M06 A2993 
     10 43 -1000 350/12G21 RMK AO2 SLP134 T00561061
********************************************
****        MAGNETIC DIRECTIONS         ****
********************************************
KEWR 04/25/2015 02:05:05 GMT 350 16 G22KT
KEWR 04/25/2015 02:03:05 GMT 010 16 G22KT
KEWR 04/25/2015 02:01:05 GMT 360 14 G22KT
KEWR 04/25/2015 01:59:05 GMT 360 13 G22KT
KEWR 04/25/2015 01:57:05 GMT 360 15 G22KT
KEWR 04/25/2015 01:55:05 GMT 350 18 G22KT
KEWR 04/25/2015 01:53:05 GMT 350 15 G22KT
KEWR 04/25/2015 01:51:05 GMT 360 14 KT
KEWR 04/25/2015 01:49:05 GMT 350 15 KT
KEWR 04/25/2015 01:47:05 GMT 360 14 G27KT
SAUS70 KEWR 250200
METAR KEWR 250151Z 34012G21KT 10SM FEW250 06/M06 A2993 RMK AO2 SLP135
     T00561061
FTUS31 KEWR 242351
KEWR 242349Z 2500/2606 34017G24KT P6SM FEW060
     FM250200 34014G21KT P6SM SKC
     FM250600 29009KT P6SM SKC
     FM251900 28010G20KT P6SM FEW050 SCT250
     FM260200 VRB06KT P6SM BKN250
KEWR FCSTER COMMENTS: HIGH CONFIDENCE. 

ewr
Afternoon EWR Haze Potential Forecast: KEWR Haze Forecast Not Available at This Time
IS NOT AVAILABLE AT THIS TIME


******************************************************************************

KTEB Terminal Weather:
SAUS80 KTEB 250200
METAR KTEB 250151Z 32013G18KT 10SM CLR 04/M07 A2993 RMK AO2 PK WND
     32027/0052 SLP133 T00441067
FTUS31 KTEB 242351
KTEB 242349Z 2500/2524 34015G25KT P6SM SKC
     FM250200 34011G20KT P6SM SKC
     FM250400 33008KT P6SM SKC
     FM250600 29004KT P6SM SKC
     FM251300 30010G18KT P6SM FEW050 SCT250
     FM252200 29008KT P6SM SCT250
KTEB FCSTER COMMENTS: HIGH CONFIDENCE. 

teb

 


**************************************************************************************

KHPN Terminal Weather:
SAUS70 KHPN 250200 RRC
METAR KHPN 250156Z 33019G30KT 10SM FEW040 03/M07 A2989 RMK AO2 PK WND
     34030/0148 SLP128 T00281072
FTUS80 KHPN 242351
KHPN 242349Z 2500/2524 30016G24KT P6SM SCT060
     FM250200 32013G21KT P6SM FEW050
     FM250400 30008KT P6SM SKC
     FM251300 30013G20KT P6SM FEW050 SCT250
     FM252200 30009KT P6SM SCT250 AMD NOT SKED
KHPN FCSTER COMMENTS: HIGH CONFIDENCE. 

HPN


******************************************************************************

KISP Terminal Weather:
SAUS70 KISP 250200 RRB
METAR KISP 250156Z 32015G23KT 10SM SCT046 04/M06 A2988 RMK AO2 PK WND
     31029/0106 SLP119 T00441056
FTUS51 KISP 242351
KISP 242349Z 2500/2524 33013G20KT P6SM FEW045 SCT070
     FM250300 32008KT P6SM FEW070
     FM250700 29008KT P6SM SKC
     FM251200 31014G24KT P6SM FEW050 SCT250
     FM252000 27012G20KT P6SM FEW050 SCT250
KISP FCSTER COMMENTS: HIGH CONFIDENCE. 

ISP

 


ZNY SWAP Season Information

(ZNY SWAP STATEMENT) (Click for PDF File) (ZNY BRIEFING) (Click for PDF File)

*******************************************************
***        NY AIR ROUTE TRAFFIC CONTROL CENTER      ***
***                DAILY SWAP STATEMENT             ***
*******************************************************
- KNYC 241426
WRKSWP
FRIDAY,   APRIL 24, 2015
SWAP IS NOT EXPECTED.
ADDT'L INFO: 
AZEZU-PAEPR-HANRI(L453-M201):  NO IMPACTS. 
DITCH: NO IMPACTS. 
EAST GATES:  NO IMPACTS.
TOMORROW MORNINGS SWAP OUTLOOK:  SWAP IS NOT EXPECTED.
$$
GS

N90 AirSpace Impacts

N90 ZNY Gate TSTM Forecast    SWAP Day One Forecast

SWAP Day One Forecast    SWAP Day Two Outlook

National Collaborative Convective Forecast Product (CCFP) Forecasts (Mar-Oct)

CAWS - Collaborative Aviation Weather Statement


Vertical Wind Profile
Untitled Document